Time;durP1;ratioP1;P1;durP2;ratioP2;P2;SDS_P1;SDS_P2;PMS_P1;PMS_P2;Temp;Humidity;BMP_temperature;BMP_pressure;BME280_temperature;BME280_humidity;BME280_pressure;Samples;Min_cycle;Max_cycle;Signal;HPM_P1;HPM_P2
2021/08/13 00:00:34;;;;;;;11.68;8.05;;;;;;;15.26;73.52;100350.78;5099671;28;20039;-51
2021/08/13 00:03:10;;;;;;;12.88;8.07;;;;;;;15.23;73.95;100353.53;5099653;28;20116;-51
2021/08/13 00:05:36;;;;;;;11.77;7.18;;;;;;;15.22;73.82;100354.44;5099250;28;20410;-51
2021/08/13 00:08:03;;;;;;;10.35;7.38;;;;;;;15.22;73.79;100357.09;5099546;28;20090;-51
2021/08/13 00:10:29;;;;;;;14.15;7.22;;;;;;;15.18;73.85;100354.56;5099474;28;20058;-50
2021/08/13 00:12:57;;;;;;;11.90;7.07;;;;;;;15.16;73.92;100345.81;5099212;28;20364;-51
2021/08/13 00:15:25;;;;;;;12.88;7.00;;;;;;;15.16;74.01;100344.97;5099407;28;20063;-51
2021/08/13 00:17:51;;;;;;;11.20;7.22;;;;;;;15.12;73.93;100346.84;5099274;28;20044;-51
2021/08/13 00:20:17;;;;;;;10.80;6.82;;;;;;;15.09;74.10;100346.09;5099305;28;20054;-51
2021/08/13 00:22:43;;;;;;;11.73;7.20;;;;;;;15.07;74.16;100334.72;5099017;28;20036;-51
2021/08/13 00:25:08;;;;;;;10.63;6.75;;;;;;;15.04;74.26;100335.69;5099228;28;20096;-51
2021/08/13 00:27:34;;;;;;;10.18;6.75;;;;;;;15.03;74.15;100333.97;5098835;28;20465;-51
2021/08/13 00:30:00;;;;;;;10.23;6.80;;;;;;;15.00;74.32;100344.63;5098790;28;20052;-51
2021/08/13 00:32:26;;;;;;;12.15;7.53;;;;;;;15.00;74.54;100330.59;5098458;28;20097;-51
2021/08/13 00:34:52;;;;;;;10.15;6.50;;;;;;;14.99;74.70;100344.69;5098171;28;20055;-51
2021/08/13 00:37:18;;;;;;;10.52;6.28;;;;;;;15.00;74.75;100341.13;5098065;28;20052;-51
2021/08/13 00:39:44;;;;;;;10.57;7.32;;;;;;;15.00;74.79;100338.50;5098681;28;20040;-51
2021/08/13 00:42:11;;;;;;;9.00;6.75;;;;;;;15.01;74.43;100346.34;5098047;28;20044;-51
2021/08/13 00:44:40;;;;;;;11.65;7.68;;;;;;;15.01;74.54;100348.97;5097706;28;20531;-51
2021/08/13 00:47:07;;;;;;;13.23;7.90;;;;;;;15.00;74.49;100335.88;5097952;28;20051;-51
2021/08/13 00:49:58;;;;;;;10.20;6.75;;;;;;;14.95;74.52;100344.81;5097838;28;20105;-51
2021/08/13 00:52:31;;;;;;;14.35;7.22;;;;;;;14.92;74.46;100336.13;5097480;28;20367;-51
2021/08/13 00:54:57;;;;;;;10.88;7.05;;;;;;;14.93;74.85;100336.06;5097749;28;20048;-51
2021/08/13 00:57:38;;;;;;;10.90;7.53;;;;;;;14.93;74.81;100338.72;5097371;28;20056;-51
2021/08/13 01:00:23;;;;;;;11.43;8.25;;;;;;;14.87;74.95;100335.44;5097700;28;20444;-51
2021/08/13 01:02:52;;;;;;;11.57;7.28;;;;;;;14.91;75.04;100340.53;5097387;28;20129;-51
2021/08/13 01:05:20;;;;;;;12.57;7.85;;;;;;;14.93;74.86;100345.75;5097600;28;20058;-51
2021/08/13 01:07:46;;;;;;;17.42;8.00;;;;;;;14.92;74.68;100344.91;5097483;28;20054;-51
2021/08/13 01:10:13;;;;;;;16.75;8.98;;;;;;;14.90;74.80;100341.44;5097498;28;20048;-51
2021/08/13 01:13:10;;;;;;;13.35;7.95;;;;;;;14.90;74.82;100344.09;5097474;28;20072;-51
2021/08/13 01:15:42;;;;;;;9.98;7.47;;;;;;;14.81;74.94;100339.13;5062019;28;20070;-51
2021/08/13 01:18:16;;;;;;;11.23;8.38;;;;;;;14.86;74.77;100344.25;5097819;28;20047;-51
2021/08/13 01:21:20;;;;;;;13.05;7.18;;;;;;;14.83;74.99;100341.72;5064361;28;20052;-51
2021/08/13 01:23:56;;;;;;;12.10;6.57;;;;;;;14.76;75.12;100343.72;5097264;28;20068;-51
2021/08/13 01:26:33;;;;;;;10.70;7.60;;;;;;;14.73;75.02;100341.19;5065112;28;20051;-51
2021/08/13 01:29:31;;;;;;;10.30;6.30;;;;;;;14.73;75.22;100335.91;5080505;28;20055;-51
2021/08/13 01:32:12;;;;;;;9.15;6.57;;;;;;;14.71;74.98;100335.94;5093800;28;20440;-51
2021/08/13 01:35:03;;;;;;;10.40;6.72;;;;;;;14.69;74.95;100329.88;5097048;28;20044;-51
2021/08/13 01:37:29;;;;;;;14.45;6.38;;;;;;;14.66;74.99;100339.66;5080129;28;20048;-51
2021/08/13 01:40:00;;;;;;;20.80;7.13;;;;;;;14.64;74.88;100336.22;5096625;28;20080;-51
2021/08/13 01:42:28;;;;;;;8.25;6.47;;;;;;;14.64;74.93;100330.94;5080188;28;20048;-51
2021/08/13 01:44:55;;;;;;;9.07;6.07;;;;;;;14.59;74.98;100328.47;5080058;28;20059;-51
2021/08/13 01:47:22;;;;;;;9.90;6.18;;;;;;;14.55;75.17;100326.81;5079989;28;20051;-51
2021/08/13 01:49:50;;;;;;;8.50;6.32;;;;;;;14.58;75.08;100339.91;5080036;28;20051;-51
2021/08/13 01:52:17;;;;;;;8.93;6.38;;;;;;;14.53;75.30;100336.56;5096321;28;20444;-51
2021/08/13 01:54:43;;;;;;;12.40;7.47;;;;;;;14.50;75.45;100339.28;5097491;28;20068;-51
2021/08/13 01:57:09;;;;;;;9.13;6.70;;;;;;;14.44;75.47;100324.50;5096401;27;20076;-51
2021/08/13 01:59:35;;;;;;;12.93;7.18;;;;;;;14.41;75.54;100331.66;5097355;28;20043;-51
2021/08/13 02:02:01;;;;;;;10.23;6.35;;;;;;;14.40;75.80;100327.31;5079169;28;20043;-51
2021/08/13 02:04:32;;;;;;;9.02;5.65;;;;;;;14.34;75.79;100315.19;5096233;28;20104;-51
2021/08/13 02:07:01;;;;;;;9.38;5.80;;;;;;;14.35;75.50;100330.06;5063913;28;20058;-51
2021/08/13 02:09:27;;;;;;;9.75;6.45;;;;;;;14.35;75.45;100326.59;5079222;28;20356;-51
2021/08/13 02:11:56;;;;;;;8.55;6.32;;;;;;;14.33;75.78;100323.13;5079532;28;20051;-51
2021/08/13 02:14:23;;;;;;;13.02;6.18;;;;;;;14.29;76.00;100319.72;5096408;28;20047;-51
2021/08/13 02:16:52;;;;;;;8.82;6.97;;;;;;;14.29;76.06;100321.50;5096216;28;20074;-51
2021/08/13 02:19:27;;;;;;;9.65;6.35;;;;;;;14.25;76.26;100320.75;5080163;28;20368;-51
2021/08/13 02:21:53;;;;;;;8.27;5.90;;;;;;;14.24;76.73;100321.66;5078992;28;20105;-51
2021/08/13 02:24:20;;;;;;;13.82;6.68;;;;;;;14.24;77.28;100324.31;5079165;28;20052;-51
2021/08/13 02:26:56;;;;;;;10.48;7.53;;;;;;;14.23;78.00;100331.34;5081024;28;20097;-51
2021/08/13 02:29:23;;;;;;;15.02;7.50;;;;;;;14.22;77.29;100324.34;5096023;28;20044;-51
2021/08/13 02:31:48;;;;;;;9.77;7.70;;;;;;;14.20;77.04;100314.75;5095713;28;20343;-51
2021/08/13 02:34:14;;;;;;;8.85;6.45;;;;;;;14.21;77.12;100317.34;5096561;28;20044;-51
2021/08/13 02:36:49;;;;;;;10.63;7.00;;;;;;;14.21;77.04;100324.41;5095637;28;20048;-51
2021/08/13 02:39:18;;;;;;;;;;;;;;;14.06;77.58;100323.09;5095985;28;20043;-51
2021/08/13 02:41:43;;;;;;;9.02;7.00;;;;;;;14.03;77.52;100310.03;5079023;28;19920;-51
2021/08/13 02:44:09;;;;;;;12.35;6.72;;;;;;;14.09;77.17;100319.50;5079077;28;20105;-51
2021/08/13 02:46:39;;;;;;;10.65;6.60;;;;;;;14.09;76.88;100317.72;5079062;28;20036;-51
2021/08/13 02:49:09;;;;;;;12.30;7.50;;;;;;;14.09;77.51;100314.25;5079358;28;20425;-51
2021/08/13 02:51:35;;;;;;;9.90;6.80;;;;;;;14.09;77.55;100314.25;5096288;28;20129;-51
2021/08/13 02:54:01;;;;;;;9.65;7.28;;;;;;;14.08;77.35;100312.53;5046056;28;20501;-51
2021/08/13 02:56:29;;;;;;;11.35;6.65;;;;;;;14.06;77.16;100320.47;5095186;28;20455;-51
2021/08/13 02:58:58;;;;;;;11.15;7.03;;;;;;;14.05;77.19;100310.00;5078536;28;20048;-51
2021/08/13 03:01:25;;;;;;;10.35;6.70;;;;;;;14.03;77.25;100313.50;5079140;28;20048;-51
2021/08/13 03:03:52;;;;;;;9.75;6.47;;;;;;;14.03;77.65;100310.88;5078941;28;20048;-51
2021/08/13 03:06:20;;;;;;;10.57;6.55;;;;;;;13.97;77.68;100299.69;5078607;28;20044;-51
2021/08/13 03:08:46;;;;;;;13.45;7.65;;;;;;;13.99;77.80;100306.63;5095543;28;20055;-51
2021/08/13 03:11:12;;;;;;;12.35;5.90;;;;;;;13.98;77.91;100312.81;5095526;28;20052;-51
2021/08/13 03:13:38;;;;;;;10.43;6.70;;;;;;;13.96;77.92;100311.13;5113110;27;20390;-51
2021/08/13 03:16:04;;;;;;;11.15;6.70;;;;;;;13.96;78.10;100304.09;5082673;28;20043;-51
2021/08/13 03:18:39;;;;;;;9.40;7.22;;;;;;;13.98;78.24;100301.41;5099269;28;20445;-51
2021/08/13 03:21:07;;;;;;;11.77;8.38;;;;;;;13.98;78.35;100306.69;5100746;27;20052;-51
2021/08/13 03:23:32;;;;;;;11.75;7.97;;;;;;;13.94;78.68;100308.56;5082674;28;20043;-51
2021/08/13 03:25:58;;;;;;;16.83;8.18;;;;;;;13.93;78.38;100306.81;5100336;28;20052;-51
2021/08/13 03:28:25;;;;;;;21.15;8.73;;;;;;;13.93;78.23;100308.59;5099181;28;20051;-51
2021/08/13 03:30:51;;;;;;;15.02;8.95;;;;;;;13.95;78.33;100317.31;5099448;28;20421;-51
2021/08/13 03:33:23;;;;;;;13.57;8.38;;;;;;;13.92;78.05;100315.63;5099096;28;20044;-51
2021/08/13 03:35:50;;;;;;;12.23;6.50;;;;;;;13.91;78.00;100315.66;5099088;28;20044;-51
2021/08/13 03:38:16;;;;;;;8.52;6.35;;;;;;;13.90;78.29;100316.59;5099184;28;20112;-51
2021/08/13 03:40:42;;;;;;;9.15;6.38;;;;;;;13.88;78.43;100310.53;5099860;28;20036;-51
2021/08/13 03:43:08;;;;;;;10.38;6.30;;;;;;;13.88;78.33;100315.78;5099175;28;20143;-51
2021/08/13 03:45:36;;;;;;;10.55;7.63;;;;;;;13.89;78.46;100305.19;5099141;28;20052;-51
2021/08/13 03:48:04;;;;;;;10.45;6.68;;;;;;;13.92;78.35;100309.50;5099108;28;20104;-51
2021/08/13 03:50:32;;;;;;;11.00;7.15;;;;;;;13.94;78.78;100305.03;5082404;28;20055;-51
2021/08/13 03:52:58;;;;;;;13.60;7.43;;;;;;;13.96;78.70;100305.88;5099010;28;20044;-51
2021/08/13 03:55:24;;;;;;;12.43;7.45;;;;;;;14.00;78.85;100312.75;5098965;28;20180;-51
2021/08/13 03:57:51;;;;;;;14.80;7.22;;;;;;;14.03;78.62;100307.38;5098502;28;20052;-51
2021/08/13 04:00:17;;;;;;;8.27;6.78;;;;;;;14.07;78.82;100309.03;5098619;28;20040;-51
2021/08/13 04:02:47;;;;;;;8.95;6.60;;;;;;;14.11;79.00;100304.53;5098844;28;20059;-51
2021/08/13 04:05:18;;;;;;;12.77;8.30;;;;;;;14.16;78.89;100306.09;5098780;28;20094;-51
2021/08/13 04:07:45;;;;;;;15.73;8.60;;;;;;;14.24;79.04;100305.88;5098364;28;20052;-51
2021/08/13 04:10:11;;;;;;;9.52;7.28;;;;;;;14.32;79.21;100297.69;5099487;28;20048;-51
2021/08/13 04:12:38;;;;;;;12.27;7.68;;;;;;;14.38;79.45;100289.59;5099478;28;20056;-51
2021/08/13 04:15:24;;;;;;;10.55;7.40;;;;;;;14.44;79.45;100292.88;5099169;28;20440;-51
2021/08/13 04:17:52;;;;;;;8.65;6.80;;;;;;;14.53;79.43;100290.88;5098478;28;20048;-51
2021/08/13 04:20:20;;;;;;;10.30;6.40;;;;;;;14.61;79.26;100302.91;5098263;28;20109;-51
2021/08/13 04:22:50;;;;;;;11.35;7.95;;;;;;;14.68;79.24;100288.59;5098974;28;20321;-51
2021/08/13 04:25:16;;;;;;;10.88;7.03;;;;;;;14.77;78.97;100294.47;5098256;28;20093;-51
2021/08/13 04:27:42;;;;;;;8.25;6.70;;;;;;;14.82;79.06;100288.13;5098359;28;20356;-51
2021/08/13 04:30:09;;;;;;;9.55;6.13;;;;;;;14.90;78.96;100299.25;5098008;28;20052;-51
2021/08/13 04:32:37;;;;;;;10.32;6.05;;;;;;;14.96;78.90;100293.75;5097990;28;20044;-51
2021/08/13 04:35:04;;;;;;;10.35;6.75;;;;;;;15.06;78.79;100294.31;5099072;28;20048;-51
2021/08/13 04:37:29;;;;;;;9.70;6.93;;;;;;;15.13;78.49;100294.94;5081286;28;20047;-51
2021/08/13 04:39:57;;;;;;;10.27;6.30;;;;;;;15.18;78.44;100291.22;5098667;28;20063;-51
2021/08/13 04:42:22;;;;;;;14.20;7.10;;;;;;;15.26;78.10;100296.22;5097857;28;20043;-51
2021/08/13 04:44:49;;;;;;;11.45;7.65;;;;;;;15.34;78.12;100301.19;5097986;28;20055;-51
2021/08/13 04:47:16;;;;;;;10.70;7.07;;;;;;;15.40;77.83;100291.31;5097991;28;20435;-51
2021/08/13 04:49:43;;;;;;;7.63;5.93;;;;;;;15.48;77.66;100300.72;5097628;28;20055;-51
2021/08/13 04:52:10;;;;;;;10.88;6.72;;;;;;;15.55;77.48;100304.84;5097582;28;20545;-51
2021/08/13 04:54:36;;;;;;;8.07;6.38;;;;;;;15.62;77.35;100301.91;5097401;28;20359;-51
2021/08/13 04:57:02;;;;;;;10.05;6.07;;;;;;;15.73;77.04;100306.81;5080591;28;20525;-51
2021/08/13 04:59:28;;;;;;;7.43;5.88;;;;;;;16.01;77.08;100305.72;5097384;28;20032;-51
2021/08/13 05:02:02;;;;;;;9.27;6.13;;;;;;;16.40;76.73;100313.84;5098059;28;20043;-51
2021/08/13 05:04:28;;;;;;;10.68;6.43;;;;;;;16.81;76.57;100319.22;5097635;28;20052;-51
2021/08/13 05:06:56;;;;;;;9.50;5.63;;;;;;;17.29;75.79;100308.28;5081205;28;20059;-51
2021/08/13 05:09:23;;;;;;;9.88;5.60;;;;;;;17.74;75.28;100312.41;5097284;28;20044;-51
2021/08/13 05:11:48;;;;;;;8.02;6.15;;;;;;;18.32;74.14;100314.06;5097201;28;20052;-51
2021/08/13 05:14:14;;;;;;;11.05;8.23;;;;;;;18.71;71.20;100313.00;5097454;28;20060;-51
2021/08/13 05:16:42;;;;;;;11.40;8.77;;;;;;;19.13;70.61;100320.59;5097084;28;20433;-51
2021/08/13 05:19:08;;;;;;;11.77;7.90;;;;;;;19.62;69.64;100319.75;5097252;28;20093;-51
2021/08/13 05:21:37;;;;;;;11.13;7.28;;;;;;;20.20;67.96;100321.03;5097320;28;20047;-51
2021/08/13 05:24:04;;;;;;;12.82;8.05;;;;;;;20.74;65.24;100325.00;5080451;28;20048;-51
2021/08/13 05:26:30;;;;;;;12.68;7.60;;;;;;;21.16;63.46;100323.38;5098114;28;20415;-51
2021/08/13 05:28:56;;;;;;;12.15;6.70;;;;;;;21.56;61.63;100315.59;5096821;28;20044;-51
2021/08/13 05:31:23;;;;;;;12.18;7.07;;;;;;;21.88;60.26;100318.03;5097036;28;20105;-51
2021/08/13 05:33:48;;;;;;;11.38;7.47;;;;;;;21.90;58.64;100325.00;5097649;28;20396;-51
2021/08/13 05:36:16;;;;;;;13.13;6.82;;;;;;;22.35;58.84;100322.13;5096999;28;20044;-51
2021/08/13 05:38:43;;;;;;;9.55;5.95;;;;;;;22.74;58.05;100328.44;5096706;27;20052;-51
2021/08/13 05:41:09;;;;;;;9.88;6.63;;;;;;;22.85;56.82;100324.06;5097790;28;20073;-51
2021/08/13 05:43:35;;;;;;;11.63;6.50;;;;;;;22.52;56.27;100331.66;5096862;28;20052;-51
2021/08/13 05:46:01;;;;;;;12.52;6.35;;;;;;;22.19;55.99;100324.94;5097101;28;20044;-51
2021/08/13 05:48:27;;;;;;;14.98;7.57;;;;;;;21.84;56.61;100325.38;5096511;28;20051;-51
2021/08/13 05:50:53;;;;;;;7.65;6.00;;;;;;;21.94;57.87;100325.66;5096753;28;20048;-51
2021/08/13 05:53:19;;;;;;;13.85;6.75;;;;;;;22.09;57.55;100332.63;5079880;28;20405;-51
2021/08/13 05:55:45;;;;;;;7.40;6.10;;;;;;;22.64;57.98;100325.53;5096626;28;20117;-51
2021/08/13 05:58:13;;;;;;;10.43;6.50;;;;;;;23.02;55.85;100324.78;5096122;28;20063;-51
2021/08/13 06:00:39;;;;;;;9.32;5.55;;;;;;;23.47;54.97;100320.72;5096530;28;20349;-51
2021/08/13 06:03:07;;;;;;;8.20;5.93;;;;;;;23.68;53.42;100317.47;5096788;28;20424;-52
2021/08/13 06:05:41;;;;;;;8.90;5.43;;;;;;;23.94;54.17;100313.78;5096520;28;20349;-51
2021/08/13 06:08:07;;;;;;;9.88;5.63;;;;;;;24.22;53.33;100311.78;5096144;28;20040;-51
2021/08/13 06:10:33;;;;;;;12.63;7.40;;;;;;;24.59;51.96;100319.75;5096399;28;20126;-52
2021/08/13 06:12:59;;;;;;;10.75;6.47;;;;;;;24.63;51.06;100322.06;5096390;28;20044;-52
2021/08/13 06:15:25;;;;;;;9.57;6.10;;;;;;;24.78;51.77;100320.06;5096940;28;20047;-51
2021/08/13 06:17:51;;;;;;;12.77;5.85;;;;;;;25.16;51.09;100316.31;5079065;28;20066;-51
2021/08/13 06:20:19;;;;;;;10.25;6.13;;;;;;;25.43;49.77;100307.91;5095966;28;20047;-51
2021/08/13 06:22:52;;;;;;;9.32;5.50;;;;;;;25.70;49.47;100307.53;5095896;28;20459;-51
2021/08/13 06:25:18;;;;;;;8.50;5.70;;;;;;;25.85;47.79;100306.31;5096431;28;20040;-51
2021/08/13 06:27:44;;;;;;;11.68;4.80;;;;;;;25.98;48.42;100303.50;5096961;28;20047;-51
2021/08/13 06:30:13;;;;;;;8.30;5.15;;;;;;;26.24;47.97;100311.25;5095798;28;20123;-52
2021/08/13 06:32:39;;;;;;;11.63;5.95;;;;;;;26.26;46.81;100304.78;5096735;28;20077;-51
2021/08/13 06:35:08;;;;;;;16.85;5.40;;;;;;;26.70;47.80;100308.28;5095951;28;20090;-51
2021/08/13 06:37:45;;;;;;;13.50;5.20;;;;;;;27.03;46.46;100301.00;5095605;28;20068;-51
2021/08/13 06:40:12;;;;;;;12.65;4.82;;;;;;;27.23;46.61;100304.69;5095947;28;20052;-51
2021/08/13 06:42:38;;;;;;;9.38;4.80;;;;;;;27.57;46.68;100310.66;5096712;28;20400;-50
2021/08/13 06:45:11;;;;;;;9.05;4.75;;;;;;;27.82;45.72;100306.66;5079920;28;20134;-51
2021/08/13 06:47:37;;;;;;;8.57;4.72;;;;;;;28.21;45.64;100304.06;5096355;28;20047;-51
2021/08/13 06:50:04;;;;;;;11.85;4.60;;;;;;;28.49;44.49;100306.94;5096293;28;20052;-51
2021/08/13 06:52:33;;;;;;;11.50;4.97;;;;;;;28.43;42.78;100309.19;5095765;28;20048;-51
2021/08/13 06:55:00;;;;;;;9.10;4.57;;;;;;;28.15;43.87;100310.00;5095700;28;20052;-51
2021/08/13 06:57:26;;;;;;;5.82;4.45;;;;;;;28.22;43.39;100308.44;5078551;28;20314;-52
2021/08/13 06:59:53;;;;;;;7.00;4.50;;;;;;;28.34;43.40;100312.72;5095570;28;20044;-52
2021/08/13 07:02:20;;;;;;;8.13;3.60;;;;;;;28.71;44.17;100320.09;5095317;28;20463;-51
2021/08/13 07:04:46;;;;;;;5.82;4.10;;;;;;;28.85;42.99;100321.50;5095546;28;20054;-51
2021/08/13 07:07:13;;;;;;;6.20;4.00;;;;;;;28.81;42.90;100315.56;5096437;28;20052;-51
2021/08/13 07:09:40;;;;;;;6.70;3.95;;;;;;;28.77;41.39;100316.00;5062370;28;20074;-52
2021/08/13 07:12:06;;;;;;;5.70;4.15;;;;;;;28.80;41.11;100318.41;5095194;28;20357;-50
2021/08/13 07:14:32;;;;;;;5.25;4.15;;;;;;;28.76;41.15;100312.47;5095269;28;20040;-51
2021/08/13 07:16:58;;;;;;;8.10;4.25;;;;;;;28.94;41.31;100309.03;5095487;28;20430;-51
2021/08/13 07:19:24;;;;;;;6.70;3.92;;;;;;;29.11;41.24;100305.59;5096553;28;20043;-51
2021/08/13 07:21:49;;;;;;;5.43;3.72;;;;;;;29.28;41.81;100303.97;5095437;28;20109;-51
2021/08/13 07:24:19;;;;;;;6.13;4.47;;;;;;;29.35;41.28;100297.03;5095378;28;20101;-51
2021/08/13 07:26:45;;;;;;;8.48;4.30;;;;;;;29.43;40.77;100305.22;5095126;28;20047;-51
2021/08/13 07:29:11;;;;;;;6.45;3.50;;;;;;;29.62;41.29;100307.00;5095067;28;20130;-52
2021/08/13 07:31:38;;;;;;;7.30;3.58;;;;;;;29.63;40.25;100303.31;5095085;28;20421;-51
2021/08/13 07:34:05;;;;;;;4.43;3.20;;;;;;;29.63;40.03;100311.41;5095288;28;20056;-51
2021/08/13 07:36:31;;;;;;;7.15;3.28;;;;;;;29.73;39.65;100312.19;5095333;28;20063;-51
2021/08/13 07:38:57;;;;;;;4.82;3.33;;;;;;;29.87;39.63;100313.56;5096057;28;20048;-51
2021/08/13 07:41:23;;;;;;;7.38;3.60;;;;;;;29.83;39.36;100308.59;5095226;28;20352;-51
2021/08/13 07:43:49;;;;;;;4.72;3.28;;;;;;;29.94;39.77;100317.34;5096094;28;20072;-52
2021/08/13 07:46:15;;;;;;;4.07;3.30;;;;;;;30.10;40.35;100307.75;5094908;28;20433;-52
2021/08/13 07:48:41;;;;;;;5.63;3.33;;;;;;;30.35;41.17;100312.41;5094945;28;20040;-52
2021/08/13 07:51:08;;;;;;;6.45;3.90;;;;;;;30.41;39.26;100314.50;5095168;28;20074;-51
2021/08/13 07:53:35;;;;;;;5.45;3.67;;;;;;;30.51;38.97;100309.00;5094898;28;20386;-51
2021/08/13 07:56:01;;;;;;;8.00;3.28;;;;;;;30.51;38.53;100311.72;5095749;28;20425;-51
2021/08/13 07:58:30;;;;;;;5.50;3.63;;;;;;;30.62;38.72;100316.91;5094630;28;20135;-51
2021/08/13 08:00:56;;;;;;;7.18;3.03;;;;;;;30.63;38.72;100313.19;5096901;28;20141;-51
2021/08/13 08:03:22;;;;;;;7.57;3.17;;;;;;;30.64;39.15;100311.31;5099768;28;20040;-52
2021/08/13 08:05:47;;;;;;;5.97;3.28;;;;;;;30.53;38.67;100316.97;5099662;28;20058;-51
2021/08/13 08:08:13;;;;;;;4.68;2.78;;;;;;;30.61;38.98;100317.03;5099603;28;20109;-51
2021/08/13 08:10:45;;;;;;;4.22;3.38;;;;;;;30.53;37.75;100309.72;5099553;28;20482;-51
2021/08/13 08:13:10;;;;;;;7.78;3.20;;;;;;;30.57;38.53;100311.09;5099062;28;20048;-52
2021/08/13 08:15:36;;;;;;;8.23;3.25;;;;;;;30.52;37.80;100308.03;5099471;28;20048;-51
2021/08/13 08:18:02;;;;;;;4.65;2.50;;;;;;;30.47;37.45;100302.22;5099229;28;20503;-51
2021/08/13 08:20:28;;;;;;;6.97;2.80;;;;;;;30.44;37.72;100299.84;5099395;28;20047;-51
2021/08/13 08:22:54;;;;;;;3.38;2.50;;;;;;;30.43;37.88;100300.84;5099314;28;20047;-51
2021/08/13 08:25:20;;;;;;;4.32;2.75;;;;;;;30.55;38.02;100305.03;5099318;28;20040;-51
2021/08/13 08:27:45;;;;;;;5.72;2.95;;;;;;;30.61;38.22;100298.97;5099219;28;20446;-51
2021/08/13 08:30:12;;;;;;;5.38;3.38;;;;;;;30.67;37.50;100300.19;5098329;28;20455;-52
2021/08/13 08:32:38;;;;;;;3.45;2.47;;;;;;;30.63;37.16;100301.53;5098006;28;20123;-52
2021/08/13 08:35:04;;;;;;;3.60;3.00;;;;;;;30.56;37.02;100290.50;5099088;28;20061;-52
2021/08/13 08:37:29;;;;;;;4.85;2.60;;;;;;;30.60;37.58;100291.88;5099053;28;20048;-52
2021/08/13 08:39:55;;;;;;;4.88;3.35;;;;;;;30.54;37.14;100286.25;5098613;28;20097;-51
2021/08/13 08:42:21;;;;;;;4.30;2.60;;;;;;;30.48;36.90;100282.31;5098963;28;20055;-52
2021/08/13 08:44:47;;;;;;;4.40;3.13;;;;;;;30.44;37.84;100279.06;5098586;28;20056;-51
2021/08/13 08:47:12;;;;;;;4.63;2.88;;;;;;;30.60;38.29;100278.34;5098540;28;20052;-51
2021/08/13 08:49:40;;;;;;;4.97;2.70;;;;;;;30.62;37.17;100279.06;5098822;28;20048;-51
2021/08/13 08:52:06;;;;;;;3.38;2.50;;;;;;;30.72;37.06;100279.81;5098436;28;20052;-51
2021/08/13 08:54:34;;;;;;;5.57;2.92;;;;;;;30.70;36.76;100281.81;5098508;28;20146;-51
2021/08/13 08:56:59;;;;;;;7.20;2.67;;;;;;;30.65;35.92;100276.03;5080514;28;20052;-51
2021/08/13 08:59:25;;;;;;;3.90;3.03;;;;;;;30.63;37.75;100274.50;5097647;28;20131;-52
2021/08/13 09:01:51;;;;;;;5.00;2.63;;;;;;;30.61;37.55;100253.03;5097421;28;20130;-51
2021/08/13 09:04:16;;;;;;;5.57;2.72;;;;;;;30.71;36.46;100279.94;5098832;28;20040;-52
2021/08/13 09:06:43;;;;;;;4.50;2.97;;;;;;;30.83;37.11;100275.19;5098483;28;20044;-51
2021/08/13 09:09:09;;;;;;;4.43;2.97;;;;;;;30.85;36.97;100274.03;5098924;28;20048;-51
2021/08/13 09:11:35;;;;;;;5.60;2.78;;;;;;;30.88;36.71;100270.16;5098134;28;20055;-51
2021/08/13 09:14:05;;;;;;;2.90;2.53;;;;;;;30.94;37.03;100281.19;5097498;28;20040;-50
2021/08/13 09:16:31;;;;;;;3.92;3.03;;;;;;;30.99;37.79;100280.69;5097990;28;20475;-51
2021/08/13 09:19:02;;;;;;;4.28;2.70;;;;;;;31.03;36.75;100273.97;5097842;28;20047;-51
2021/08/13 09:21:28;;;;;;;;;;;;;;;30.84;37.18;100272.34;5098354;28;20114;-51
2021/08/13 09:23:59;;;;;;;5.28;2.65;;;;;;;31.10;37.25;100274.16;5097938;28;19928;-51
2021/08/13 09:26:25;;;;;;;5.35;3.97;;;;;;;31.02;36.41;100268.72;5097823;28;20346;-51
2021/08/13 09:29:07;;;;;;;5.00;3.40;;;;;;;31.09;36.65;100267.06;5098070;28;20043;-52
2021/08/13 09:31:41;;;;;;;6.93;3.20;;;;;;;31.13;37.34;100274.69;5098519;28;20083;-51
2021/08/13 09:34:14;;;;;;;17.17;9.80;;;;;;;31.19;36.26;100279.47;5080321;28;20059;-51
2021/08/13 09:36:49;;;;;;;16.38;9.02;;;;;;;31.22;37.14;100269.34;5080648;28;20105;-51
2021/08/13 09:39:15;;;;;;;4.82;3.10;;;;;;;31.15;36.57;100272.69;5098102;28;20039;-52
2021/08/13 09:41:48;;;;;;;9.27;2.95;;;;;;;31.29;37.16;100268.53;5096662;28;20055;-51
2021/08/13 09:44:27;;;;;;;4.55;3.22;;;;;;;31.25;36.14;100277.16;5097472;28;20065;-51
2021/08/13 09:47:09;;;;;;;4.45;3.20;;;;;;;31.15;37.15;100269.13;5097447;28;20036;-51
2021/08/13 09:49:35;;;;;;;;;;;;;;;30.91;38.51;100272.56;5097794;28;20058;-51
2021/08/13 09:52:12;;;;;;;6.32;2.70;;;;;;;31.26;36.94;100271.56;5096802;28;19924;-51
2021/08/13 09:54:39;;;;;;;5.15;3.00;;;;;;;31.24;36.79;100268.19;5097380;28;20070;-51
2021/08/13 09:57:07;;;;;;;3.50;2.85;;;;;;;31.27;37.44;100269.72;5097226;28;20074;-51
2021/08/13 09:59:33;;;;;;;7.22;2.85;;;;;;;31.33;37.39;100263.69;5097407;28;20101;-51
2021/08/13 10:01:59;;;;;;;3.75;2.70;;;;;;;31.46;37.70;100255.09;5096565;28;20048;-51
2021/08/13 10:04:32;;;;;;;4.85;3.53;;;;;;;31.59;37.30;100255.50;5079663;28;20044;-51
2021/08/13 10:06:58;;;;;;;7.88;3.10;;;;;;;31.52;37.03;100246.34;5096513;28;20135;-51
2021/08/13 10:09:28;;;;;;;4.63;3.45;;;;;;;31.64;37.93;100250.47;5097313;28;20113;-51
2021/08/13 10:11:55;;;;;;;5.70;3.83;;;;;;;31.78;37.96;100255.22;5096143;28;20051;-51
2021/08/13 10:14:33;;;;;;;5.03;3.22;;;;;;;31.89;37.51;100252.25;5096349;28;20052;-51
2021/08/13 10:17:25;;;;;;;4.00;3.08;;;;;;;31.96;37.99;100260.56;5097149;28;20044;-51
2021/08/13 10:19:59;;;;;;;4.22;3.28;;;;;;;32.07;37.47;100254.81;5096490;28;20040;-52
2021/08/13 10:22:27;;;;;;;5.70;3.42;;;;;;;32.18;37.46;100252.81;5079298;28;20097;-51
2021/08/13 10:24:52;;;;;;;5.80;3.60;;;;;;;32.19;36.60;100244.50;5095582;28;20048;-51
2021/08/13 10:27:20;;;;;;;4.70;3.20;;;;;;;32.22;36.68;100248.75;5079403;28;20043;-51
2021/08/13 10:29:52;;;;;;;4.25;3.08;;;;;;;32.27;36.40;100243.66;5095782;28;20348;-52
2021/08/13 10:32:23;;;;;;;4.22;2.72;;;;;;;32.26;35.84;100245.53;5096105;28;20130;-51
2021/08/13 10:34:49;;;;;;;3.10;2.80;;;;;;;32.29;35.11;100237.06;5079166;28;20048;-51
2021/08/13 10:37:15;;;;;;;4.65;3.17;;;;;;;32.34;35.70;100248.25;5078973;28;20360;-52
2021/08/13 10:39:46;;;;;;;4.88;3.47;;;;;;;32.38;36.60;100242.50;5095905;28;20048;-52
2021/08/13 10:42:19;;;;;;;4.53;3.53;;;;;;;32.52;35.85;100242.69;5095651;28;20050;-52
2021/08/13 10:44:50;;;;;;;4.00;2.88;;;;;;;32.63;35.95;100241.50;5079241;28;20105;-51
2021/08/13 10:47:17;;;;;;;5.10;2.70;;;;;;;32.70;35.19;100245.22;5095485;28;20055;-51
2021/08/13 10:49:46;;;;;;;4.43;2.80;;;;;;;32.75;34.83;100237.41;5062210;28;20044;-51
2021/08/13 10:52:12;;;;;;;4.90;2.55;;;;;;;32.77;34.80;100235.38;5095738;28;20082;-51
2021/08/13 10:54:41;;;;;;;3.00;2.35;;;;;;;32.84;35.18;100234.69;5079076;28;20048;-51
2021/08/13 10:57:09;;;;;;;3.08;2.65;;;;;;;32.78;34.74;100234.34;5095669;28;20059;-51
2021/08/13 10:59:41;;;;;;;3.90;2.75;;;;;;;32.76;34.70;100232.81;5095251;28;20052;-51
2021/08/13 11:02:16;;;;;;;4.18;2.28;;;;;;;32.74;34.01;100224.88;5095671;28;20061;-51
2021/08/13 11:04:52;;;;;;;6.60;2.78;;;;;;;32.69;35.08;100229.13;5095653;28;20059;-51
2021/08/13 11:08:01;;;;;;;3.13;2.83;;;;;;;32.76;34.67;100230.13;5095563;28;20059;-51
2021/08/13 11:10:47;;;;;;;5.00;2.60;;;;;;;32.63;34.39;100230.66;5095545;28;20052;-51
2021/08/13 11:13:19;;;;;;;2.88;2.35;;;;;;;32.68;35.51;100220.13;5096141;28;20341;-52
2021/08/13 11:15:48;;;;;;;5.70;2.85;;;;;;;32.70;32.87;100214.56;5096433;28;20113;-52
2021/08/13 11:18:35;;;;;;;4.63;2.78;;;;;;;32.84;34.04;100215.72;5095217;28;20047;-51
2021/08/13 11:21:04;;;;;;;6.30;2.30;;;;;;;32.83;35.06;100206.75;5095483;28;20052;-51
2021/08/13 11:23:32;;;;;;;3.95;2.63;;;;;;;32.92;34.88;100211.13;5095747;28;20048;-52
2021/08/13 11:25:58;;;;;;;3.42;2.55;;;;;;;33.00;35.45;100207.56;5096268;28;20074;-51
2021/08/13 11:28:26;;;;;;;3.92;2.40;;;;;;;33.07;34.40;100202.28;5095038;28;20048;-51